sensor_id;sensor_type;location;lat;lon;timestamp;P1;durP1;ratioP1;P2;durP2;ratioP2
70049;SDS011;57391;51.306;22.680;2023-06-10T00:01:19;8.70;;;5.20;;
70049;SDS011;57391;51.306;22.680;2023-06-10T00:03:46;12.90;;;6.20;;
70049;SDS011;57391;51.306;22.680;2023-06-10T00:06:13;8.10;;;5.30;;
70049;SDS011;57391;51.306;22.680;2023-06-10T00:08:40;8.10;;;5.30;;
70049;SDS011;57391;51.306;22.680;2023-06-10T00:11:07;9.60;;;5.70;;
70049;SDS011;57391;51.306;22.680;2023-06-10T00:13:35;8.90;;;6.00;;
70049;SDS011;57391;51.306;22.680;2023-06-10T00:16:02;9.20;;;5.80;;
70049;SDS011;57391;51.306;22.680;2023-06-10T00:18:30;9.30;;;5.80;;
70049;SDS011;57391;51.306;22.680;2023-06-10T00:20:58;9.70;;;5.50;;
70049;SDS011;57391;51.306;22.680;2023-06-10T00:23:31;7.90;;;5.30;;
70049;SDS011;57391;51.306;22.680;2023-06-10T00:25:58;8.00;;;5.60;;
70049;SDS011;57391;51.306;22.680;2023-06-10T00:28:26;7.70;;;5.60;;
70049;SDS011;57391;51.306;22.680;2023-06-10T00:30:53;7.20;;;5.30;;
70049;SDS011;57391;51.306;22.680;2023-06-10T00:33:20;8.00;;;5.70;;
70049;SDS011;57391;51.306;22.680;2023-06-10T00:35:48;9.80;;;6.00;;
70049;SDS011;57391;51.306;22.680;2023-06-10T00:38:15;9.50;;;6.50;;
70049;SDS011;57391;51.306;22.680;2023-06-10T00:40:43;9.30;;;6.30;;
70049;SDS011;57391;51.306;22.680;2023-06-10T00:43:11;8.30;;;6.20;;
70049;SDS011;57391;51.306;22.680;2023-06-10T00:45:38;8.30;;;5.80;;
70049;SDS011;57391;51.306;22.680;2023-06-10T00:48:06;8.70;;;5.90;;
70049;SDS011;57391;51.306;22.680;2023-06-10T00:50:33;7.10;;;5.50;;
70049;SDS011;57391;51.306;22.680;2023-06-10T00:53:01;7.60;;;5.80;;
70049;SDS011;57391;51.306;22.680;2023-06-10T00:55:28;9.10;;;5.80;;
70049;SDS011;57391;51.306;22.680;2023-06-10T00:57:55;9.50;;;6.50;;
70049;SDS011;57391;51.306;22.680;2023-06-10T01:00:22;9.30;;;7.10;;
70049;SDS011;57391;51.306;22.680;2023-06-10T01:02:50;8.60;;;6.40;;
70049;SDS011;57391;51.306;22.680;2023-06-10T01:05:19;9.50;;;6.70;;
70049;SDS011;57391;51.306;22.680;2023-06-10T01:11:01;9.60;;;6.50;;
70049;SDS011;57391;51.306;22.680;2023-06-10T01:13:35;7.20;;;5.30;;
70049;SDS011;57391;51.306;22.680;2023-06-10T01:16:05;10.50;;;5.60;;
70049;SDS011;57391;51.306;22.680;2023-06-10T01:18:32;7.80;;;5.60;;
70049;SDS011;57391;51.306;22.680;2023-06-10T01:20:59;8.10;;;4.90;;
70049;SDS011;57391;51.306;22.680;2023-06-10T01:23:26;7.70;;;5.40;;
70049;SDS011;57391;51.306;22.680;2023-06-10T01:26:01;6.80;;;5.50;;
70049;SDS011;57391;51.306;22.680;2023-06-10T01:28:47;9.90;;;5.00;;
70049;SDS011;57391;51.306;22.680;2023-06-10T01:31:51;6.90;;;4.50;;
70049;SDS011;57391;51.306;22.680;2023-06-10T01:34:42;7.30;;;4.20;;
70049;SDS011;57391;51.306;22.680;2023-06-10T01:37:16;7.70;;;4.40;;
70049;SDS011;57391;51.306;22.680;2023-06-10T01:39:46;5.20;;;3.80;;
70049;SDS011;57391;51.306;22.680;2023-06-10T01:42:15;5.70;;;3.80;;
70049;SDS011;57391;51.306;22.680;2023-06-10T01:44:43;7.20;;;4.30;;
70049;SDS011;57391;51.306;22.680;2023-06-10T01:47:10;7.40;;;4.30;;
70049;SDS011;57391;51.306;22.680;2023-06-10T01:49:37;7.00;;;4.20;;
70049;SDS011;57391;51.306;22.680;2023-06-10T01:52:05;7.60;;;4.20;;
70049;SDS011;57391;51.306;22.680;2023-06-10T01:54:33;5.60;;;4.20;;
70049;SDS011;57391;51.306;22.680;2023-06-10T01:57:04;7.00;;;4.70;;
70049;SDS011;57391;51.306;22.680;2023-06-10T01:59:33;6.10;;;4.20;;
70049;SDS011;57391;51.306;22.680;2023-06-10T02:02:00;7.60;;;4.50;;
70049;SDS011;57391;51.306;22.680;2023-06-10T02:04:27;6.50;;;4.40;;
70049;SDS011;57391;51.306;22.680;2023-06-10T02:06:54;7.20;;;4.70;;
70049;SDS011;57391;51.306;22.680;2023-06-10T02:09:22;6.40;;;4.40;;
70049;SDS011;57391;51.306;22.680;2023-06-10T02:11:49;6.80;;;4.40;;
70049;SDS011;57391;51.306;22.680;2023-06-10T02:14:16;7.40;;;4.50;;
70049;SDS011;57391;51.306;22.680;2023-06-10T02:16:44;6.40;;;4.30;;
70049;SDS011;57391;51.306;22.680;2023-06-10T02:19:13;7.50;;;4.50;;
70049;SDS011;57391;51.306;22.680;2023-06-10T02:21:41;8.50;;;4.80;;
70049;SDS011;57391;51.306;22.680;2023-06-10T02:24:09;6.90;;;4.60;;
70049;SDS011;57391;51.306;22.680;2023-06-10T02:26:36;6.20;;;4.40;;
70049;SDS011;57391;51.306;22.680;2023-06-10T02:29:03;6.10;;;4.40;;
70049;SDS011;57391;51.306;22.680;2023-06-10T02:31:30;7.10;;;4.30;;
70049;SDS011;57391;51.306;22.680;2023-06-10T02:33:57;6.20;;;4.00;;
70049;SDS011;57391;51.306;22.680;2023-06-10T02:36:25;6.20;;;4.20;;
70049;SDS011;57391;51.306;22.680;2023-06-10T02:38:54;6.80;;;3.80;;
70049;SDS011;57391;51.306;22.680;2023-06-10T02:41:21;5.80;;;3.90;;
70049;SDS011;57391;51.306;22.680;2023-06-10T02:43:51;7.50;;;3.90;;
70049;SDS011;57391;51.306;22.680;2023-06-10T02:46:19;7.00;;;4.00;;
70049;SDS011;57391;51.306;22.680;2023-06-10T02:48:46;6.00;;;3.20;;
70049;SDS011;57391;51.306;22.680;2023-06-10T02:51:16;5.10;;;3.20;;
70049;SDS011;57391;51.306;22.680;2023-06-10T02:53:46;6.10;;;3.50;;
70049;SDS011;57391;51.306;22.680;2023-06-10T02:56:16;5.20;;;3.20;;
70049;SDS011;57391;51.306;22.680;2023-06-10T02:58:44;5.60;;;3.20;;
70049;SDS011;57391;51.306;22.680;2023-06-10T03:01:12;6.20;;;3.30;;
70049;SDS011;57391;51.306;22.680;2023-06-10T03:03:51;5.40;;;3.90;;
70049;SDS011;57391;51.306;22.680;2023-06-10T03:06:19;4.90;;;3.80;;
70049;SDS011;57391;51.306;22.680;2023-06-10T03:08:46;6.70;;;3.80;;
70049;SDS011;57391;51.306;22.680;2023-06-10T03:11:16;7.50;;;3.60;;
70049;SDS011;57391;51.306;22.680;2023-06-10T03:13:43;5.20;;;3.30;;
70049;SDS011;57391;51.306;22.680;2023-06-10T03:16:12;5.90;;;3.80;;
70049;SDS011;57391;51.306;22.680;2023-06-10T03:18:39;5.40;;;3.60;;
70049;SDS011;57391;51.306;22.680;2023-06-10T03:21:08;6.90;;;4.20;;
70049;SDS011;57391;51.306;22.680;2023-06-10T03:23:35;6.10;;;3.80;;
70049;SDS011;57391;51.306;22.680;2023-06-10T03:26:03;5.80;;;3.90;;
70049;SDS011;57391;51.306;22.680;2023-06-10T03:28:32;6.50;;;4.00;;
70049;SDS011;57391;51.306;22.680;2023-06-10T03:30:59;6.20;;;4.40;;
70049;SDS011;57391;51.306;22.680;2023-06-10T03:33:27;6.00;;;4.20;;
70049;SDS011;57391;51.306;22.680;2023-06-10T03:35:54;5.90;;;4.10;;
70049;SDS011;57391;51.306;22.680;2023-06-10T03:38:21;9.10;;;4.20;;
70049;SDS011;57391;51.306;22.680;2023-06-10T03:40:49;5.70;;;4.00;;
70049;SDS011;57391;51.306;22.680;2023-06-10T03:43:16;7.10;;;4.10;;
70049;SDS011;57391;51.306;22.680;2023-06-10T03:45:44;5.50;;;3.60;;
70049;SDS011;57391;51.306;22.680;2023-06-10T03:48:12;5.90;;;3.90;;
70049;SDS011;57391;51.306;22.680;2023-06-10T03:50:46;5.70;;;4.00;;
70049;SDS011;57391;51.306;22.680;2023-06-10T03:53:14;6.00;;;3.90;;
70049;SDS011;57391;51.306;22.680;2023-06-10T03:55:42;6.50;;;3.90;;
70049;SDS011;57391;51.306;22.680;2023-06-10T03:58:09;6.10;;;4.00;;
70049;SDS011;57391;51.306;22.680;2023-06-10T04:00:40;5.90;;;4.10;;
70049;SDS011;57391;51.306;22.680;2023-06-10T04:03:10;7.00;;;3.60;;
70049;SDS011;57391;51.306;22.680;2023-06-10T04:05:43;7.00;;;4.20;;
70049;SDS011;57391;51.306;22.680;2023-06-10T04:08:10;6.20;;;4.30;;
70049;SDS011;57391;51.306;22.680;2023-06-10T04:10:37;7.00;;;3.90;;
70049;SDS011;57391;51.306;22.680;2023-06-10T04:13:04;5.60;;;3.80;;
70049;SDS011;57391;51.306;22.680;2023-06-10T04:15:36;7.50;;;4.20;;
70049;SDS011;57391;51.306;22.680;2023-06-10T04:18:06;6.50;;;4.00;;
70049;SDS011;57391;51.306;22.680;2023-06-10T04:20:33;7.70;;;4.00;;
70049;SDS011;57391;51.306;22.680;2023-06-10T04:23:00;9.10;;;4.50;;
70049;SDS011;57391;51.306;22.680;2023-06-10T04:25:28;6.30;;;4.00;;
70049;SDS011;57391;51.306;22.680;2023-06-10T04:27:56;5.90;;;4.00;;
70049;SDS011;57391;51.306;22.680;2023-06-10T04:30:23;6.20;;;3.80;;
70049;SDS011;57391;51.306;22.680;2023-06-10T04:32:51;7.80;;;4.00;;
70049;SDS011;57391;51.306;22.680;2023-06-10T04:35:19;6.70;;;4.20;;
70049;SDS011;57391;51.306;22.680;2023-06-10T04:37:46;6.90;;;4.00;;
70049;SDS011;57391;51.306;22.680;2023-06-10T04:40:14;7.20;;;4.90;;
70049;SDS011;57391;51.306;22.680;2023-06-10T04:42:42;7.30;;;4.60;;
70049;SDS011;57391;51.306;22.680;2023-06-10T04:45:10;8.60;;;4.70;;
70049;SDS011;57391;51.306;22.680;2023-06-10T04:47:38;6.60;;;4.50;;
70049;SDS011;57391;51.306;22.680;2023-06-10T04:50:06;6.10;;;4.00;;
70049;SDS011;57391;51.306;22.680;2023-06-10T04:52:33;7.70;;;4.20;;
70049;SDS011;57391;51.306;22.680;2023-06-10T04:55:01;6.10;;;4.00;;
70049;SDS011;57391;51.306;22.680;2023-06-10T04:57:28;5.60;;;3.90;;
70049;SDS011;57391;51.306;22.680;2023-06-10T04:59:55;8.20;;;4.60;;
70049;SDS011;57391;51.306;22.680;2023-06-10T05:02:22;5.70;;;4.10;;
70049;SDS011;57391;51.306;22.680;2023-06-10T05:04:49;6.60;;;3.90;;
70049;SDS011;57391;51.306;22.680;2023-06-10T05:07:17;6.50;;;4.50;;
70049;SDS011;57391;51.306;22.680;2023-06-10T05:09:44;8.00;;;4.60;;
70049;SDS011;57391;51.306;22.680;2023-06-10T05:12:11;6.70;;;4.70;;
70049;SDS011;57391;51.306;22.680;2023-06-10T05:14:38;8.00;;;4.30;;
70049;SDS011;57391;51.306;22.680;2023-06-10T05:17:06;9.60;;;4.90;;
70049;SDS011;57391;51.306;22.680;2023-06-10T05:19:33;7.30;;;5.10;;
70049;SDS011;57391;51.306;22.680;2023-06-10T05:22:02;6.80;;;4.90;;
70049;SDS011;57391;51.306;22.680;2023-06-10T05:24:29;6.60;;;4.80;;
70049;SDS011;57391;51.306;22.680;2023-06-10T05:26:56;7.80;;;5.60;;
70049;SDS011;57391;51.306;22.680;2023-06-10T05:29:23;8.80;;;4.90;;
70049;SDS011;57391;51.306;22.680;2023-06-10T05:31:50;9.10;;;5.70;;
70049;SDS011;57391;51.306;22.680;2023-06-10T05:34:17;9.20;;;5.60;;
70049;SDS011;57391;51.306;22.680;2023-06-10T05:36:45;8.20;;;5.10;;
70049;SDS011;57391;51.306;22.680;2023-06-10T05:39:12;8.60;;;5.50;;
70049;SDS011;57391;51.306;22.680;2023-06-10T05:41:40;8.70;;;5.20;;
70049;SDS011;57391;51.306;22.680;2023-06-10T05:44:07;7.60;;;4.60;;
70049;SDS011;57391;51.306;22.680;2023-06-10T05:46:34;7.10;;;4.30;;
70049;SDS011;57391;51.306;22.680;2023-06-10T05:49:02;7.60;;;4.20;;
70049;SDS011;57391;51.306;22.680;2023-06-10T05:51:29;7.50;;;4.60;;
70049;SDS011;57391;51.306;22.680;2023-06-10T05:53:57;9.60;;;4.20;;
70049;SDS011;57391;51.306;22.680;2023-06-10T05:56:24;8.50;;;3.70;;
70049;SDS011;57391;51.306;22.680;2023-06-10T05:58:52;8.60;;;4.20;;
70049;SDS011;57391;51.306;22.680;2023-06-10T06:01:20;7.20;;;3.70;;
70049;SDS011;57391;51.306;22.680;2023-06-10T06:03:47;5.70;;;3.70;;
70049;SDS011;57391;51.306;22.680;2023-06-10T06:06:15;5.40;;;3.20;;
70049;SDS011;57391;51.306;22.680;2023-06-10T06:08:42;6.40;;;3.00;;
70049;SDS011;57391;51.306;22.680;2023-06-10T06:11:09;5.10;;;2.90;;
70049;SDS011;57391;51.306;22.680;2023-06-10T06:13:36;4.80;;;2.80;;
70049;SDS011;57391;51.306;22.680;2023-06-10T06:16:04;5.40;;;3.00;;
70049;SDS011;57391;51.306;22.680;2023-06-10T06:18:31;4.10;;;2.40;;
70049;SDS011;57391;51.306;22.680;2023-06-10T06:21:01;4.40;;;2.60;;
70049;SDS011;57391;51.306;22.680;2023-06-10T06:23:28;12.80;;;2.80;;
70049;SDS011;57391;51.306;22.680;2023-06-10T06:25:55;5.70;;;3.00;;
70049;SDS011;57391;51.306;22.680;2023-06-10T06:28:22;4.80;;;2.80;;
70049;SDS011;57391;51.306;22.680;2023-06-10T06:30:56;4.10;;;2.50;;
70049;SDS011;57391;51.306;22.680;2023-06-10T06:33:23;4.20;;;2.60;;
70049;SDS011;57391;51.306;22.680;2023-06-10T06:35:50;4.40;;;2.40;;
70049;SDS011;57391;51.306;22.680;2023-06-10T06:38:17;3.90;;;2.60;;
70049;SDS011;57391;51.306;22.680;2023-06-10T06:40:45;3.90;;;2.10;;
70049;SDS011;57391;51.306;22.680;2023-06-10T06:43:11;3.80;;;2.20;;
70049;SDS011;57391;51.306;22.680;2023-06-10T06:45:59;5.10;;;2.60;;
70049;SDS011;57391;51.306;22.680;2023-06-10T06:48:26;4.60;;;2.50;;
70049;SDS011;57391;51.306;22.680;2023-06-10T06:50:53;3.50;;;2.40;;
70049;SDS011;57391;51.306;22.680;2023-06-10T06:53:22;4.50;;;2.30;;
70049;SDS011;57391;51.306;22.680;2023-06-10T06:55:49;4.40;;;2.50;;
70049;SDS011;57391;51.306;22.680;2023-06-10T06:58:17;3.70;;;2.10;;
70049;SDS011;57391;51.306;22.680;2023-06-10T07:00:44;5.10;;;2.60;;
70049;SDS011;57391;51.306;22.680;2023-06-10T07:03:11;4.00;;;2.10;;
70049;SDS011;57391;51.306;22.680;2023-06-10T07:05:39;4.50;;;2.40;;
70049;SDS011;57391;51.306;22.680;2023-06-10T07:08:07;4.40;;;2.50;;
70049;SDS011;57391;51.306;22.680;2023-06-10T07:10:35;4.00;;;2.20;;
70049;SDS011;57391;51.306;22.680;2023-06-10T07:16:01;4.10;;;2.60;;
70049;SDS011;57391;51.306;22.680;2023-06-10T07:18:29;5.30;;;2.80;;
70049;SDS011;57391;51.306;22.680;2023-06-10T07:20:56;4.90;;;2.90;;
70049;SDS011;57391;51.306;22.680;2023-06-10T07:23:23;3.90;;;2.80;;
70049;SDS011;57391;51.306;22.680;2023-06-10T07:25:50;4.50;;;2.90;;
70049;SDS011;57391;51.306;22.680;2023-06-10T07:28:17;5.60;;;2.90;;
70049;SDS011;57391;51.306;22.680;2023-06-10T07:30:45;4.90;;;2.90;;
70049;SDS011;57391;51.306;22.680;2023-06-10T07:33:12;4.20;;;2.70;;
70049;SDS011;57391;51.306;22.680;2023-06-10T07:35:42;4.40;;;3.00;;
70049;SDS011;57391;51.306;22.680;2023-06-10T07:38:09;5.10;;;3.50;;
70049;SDS011;57391;51.306;22.680;2023-06-10T07:40:39;5.50;;;3.30;;
70049;SDS011;57391;51.306;22.680;2023-06-10T07:43:06;4.50;;;3.10;;
70049;SDS011;57391;51.306;22.680;2023-06-10T07:45:33;5.70;;;3.20;;
70049;SDS011;57391;51.306;22.680;2023-06-10T07:48:01;5.00;;;3.40;;
70049;SDS011;57391;51.306;22.680;2023-06-10T07:50:28;4.80;;;3.20;;
70049;SDS011;57391;51.306;22.680;2023-06-10T07:52:56;6.30;;;3.20;;
70049;SDS011;57391;51.306;22.680;2023-06-10T07:55:23;5.60;;;3.50;;
70049;SDS011;57391;51.306;22.680;2023-06-10T07:57:53;6.30;;;3.70;;
70049;SDS011;57391;51.306;22.680;2023-06-10T08:00:21;6.20;;;3.80;;
70049;SDS011;57391;51.306;22.680;2023-06-10T08:02:48;5.60;;;3.80;;
70049;SDS011;57391;51.306;22.680;2023-06-10T08:05:16;7.80;;;5.20;;
70049;SDS011;57391;51.306;22.680;2023-06-10T08:07:45;12.90;;;6.50;;
70049;SDS011;57391;51.306;22.680;2023-06-10T08:10:12;11.40;;;6.40;;
70049;SDS011;57391;51.306;22.680;2023-06-10T08:12:39;11.30;;;6.70;;
70049;SDS011;57391;51.306;22.680;2023-06-10T08:15:06;8.50;;;4.90;;
70049;SDS011;57391;51.306;22.680;2023-06-10T08:17:34;7.50;;;3.90;;
70049;SDS011;57391;51.306;22.680;2023-06-10T08:20:01;6.00;;;4.20;;
70049;SDS011;57391;51.306;22.680;2023-06-10T08:22:29;6.60;;;4.50;;
70049;SDS011;57391;51.306;22.680;2023-06-10T08:24:56;6.00;;;4.20;;
70049;SDS011;57391;51.306;22.680;2023-06-10T08:27:24;6.90;;;4.40;;
70049;SDS011;57391;51.306;22.680;2023-06-10T08:29:51;6.10;;;4.30;;
70049;SDS011;57391;51.306;22.680;2023-06-10T08:32:19;5.70;;;3.90;;
70049;SDS011;57391;51.306;22.680;2023-06-10T08:34:46;7.20;;;5.00;;
70049;SDS011;57391;51.306;22.680;2023-06-10T08:37:13;7.70;;;4.60;;
70049;SDS011;57391;51.306;22.680;2023-06-10T08:39:41;6.40;;;4.50;;
70049;SDS011;57391;51.306;22.680;2023-06-10T08:44:55;7.30;;;5.20;;
70049;SDS011;57391;51.306;22.680;2023-06-10T08:47:24;6.80;;;4.80;;
70049;SDS011;57391;51.306;22.680;2023-06-10T08:49:52;6.10;;;4.90;;
70049;SDS011;57391;51.306;22.680;2023-06-10T08:52:24;6.60;;;4.90;;
70049;SDS011;57391;51.306;22.680;2023-06-10T08:55:02;7.10;;;5.10;;
70049;SDS011;57391;51.306;22.680;2023-06-10T08:57:31;8.80;;;5.40;;
70049;SDS011;57391;51.306;22.680;2023-06-10T08:59:59;7.50;;;4.60;;
70049;SDS011;57391;51.306;22.680;2023-06-10T09:02:27;7.50;;;4.60;;
70049;SDS011;57391;51.306;22.680;2023-06-10T09:04:59;7.20;;;5.00;;
70049;SDS011;57391;51.306;22.680;2023-06-10T09:07:27;7.20;;;4.90;;
70049;SDS011;57391;51.306;22.680;2023-06-10T09:10:03;6.70;;;5.10;;
70049;SDS011;57391;51.306;22.680;2023-06-10T09:12:34;6.60;;;4.60;;
70049;SDS011;57391;51.306;22.680;2023-06-10T09:15:02;7.00;;;4.70;;
70049;SDS011;57391;51.306;22.680;2023-06-10T09:17:31;10.20;;;7.50;;
70049;SDS011;57391;51.306;22.680;2023-06-10T09:19:59;6.90;;;4.40;;
70049;SDS011;57391;51.306;22.680;2023-06-10T09:22:29;6.00;;;4.10;;
70049;SDS011;57391;51.306;22.680;2023-06-10T09:25:13;6.20;;;4.50;;
70049;SDS011;57391;51.306;22.680;2023-06-10T09:27:46;9.20;;;6.90;;
70049;SDS011;57391;51.306;22.680;2023-06-10T09:30:29;7.10;;;4.40;;
70049;SDS011;57391;51.306;22.680;2023-06-10T09:33:09;6.40;;;4.50;;
70049;SDS011;57391;51.306;22.680;2023-06-10T09:35:49;9.80;;;6.40;;
70049;SDS011;57391;51.306;22.680;2023-06-10T09:38:21;8.40;;;5.50;;
70049;SDS011;57391;51.306;22.680;2023-06-10T09:40:50;10.10;;;6.30;;
70049;SDS011;57391;51.306;22.680;2023-06-10T09:43:19;9.00;;;5.00;;
70049;SDS011;57391;51.306;22.680;2023-06-10T09:45:51;6.80;;;4.50;;
70049;SDS011;57391;51.306;22.680;2023-06-10T09:48:21;6.90;;;4.20;;
70049;SDS011;57391;51.306;22.680;2023-06-10T09:50:50;8.70;;;5.50;;
70049;SDS011;57391;51.306;22.680;2023-06-10T09:53:17;6.40;;;4.10;;
70049;SDS011;57391;51.306;22.680;2023-06-10T09:55:45;8.20;;;4.30;;
70049;SDS011;57391;51.306;22.680;2023-06-10T09:58:12;5.30;;;3.80;;
70049;SDS011;57391;51.306;22.680;2023-06-10T10:00:40;6.90;;;3.60;;
70049;SDS011;57391;51.306;22.680;2023-06-10T10:03:08;5.90;;;3.60;;
70049;SDS011;57391;51.306;22.680;2023-06-10T10:05:35;6.40;;;3.60;;
70049;SDS011;57391;51.306;22.680;2023-06-10T10:08:02;6.20;;;3.50;;
70049;SDS011;57391;51.306;22.680;2023-06-10T10:10:30;5.80;;;3.70;;
70049;SDS011;57391;51.306;22.680;2023-06-10T10:12:59;5.70;;;3.60;;
70049;SDS011;57391;51.306;22.680;2023-06-10T10:15:29;6.00;;;3.70;;
70049;SDS011;57391;51.306;22.680;2023-06-10T10:18:10;5.90;;;3.90;;
70049;SDS011;57391;51.306;22.680;2023-06-10T10:20:46;6.70;;;3.90;;
70049;SDS011;57391;51.306;22.680;2023-06-10T10:23:24;6.10;;;3.50;;
70049;SDS011;57391;51.306;22.680;2023-06-10T10:26:04;6.30;;;4.10;;
70049;SDS011;57391;51.306;22.680;2023-06-10T10:29:10;7.70;;;4.00;;
70049;SDS011;57391;51.306;22.680;2023-06-10T10:31:50;5.90;;;3.60;;
70049;SDS011;57391;51.306;22.680;2023-06-10T10:34:33;5.80;;;3.70;;
70049;SDS011;57391;51.306;22.680;2023-06-10T10:37:08;6.00;;;4.00;;
70049;SDS011;57391;51.306;22.680;2023-06-10T10:39:36;6.10;;;4.20;;
70049;SDS011;57391;51.306;22.680;2023-06-10T10:42:04;8.20;;;4.50;;
70049;SDS011;57391;51.306;22.680;2023-06-10T10:44:37;6.40;;;4.00;;
70049;SDS011;57391;51.306;22.680;2023-06-10T10:47:08;7.60;;;4.20;;
70049;SDS011;57391;51.306;22.680;2023-06-10T10:49:37;6.30;;;4.80;;
70049;SDS011;57391;51.306;22.680;2023-06-10T10:52:11;7.00;;;4.70;;
70049;SDS011;57391;51.306;22.680;2023-06-10T10:54:44;7.40;;;4.80;;
70049;SDS011;57391;51.306;22.680;2023-06-10T10:57:23;6.60;;;4.70;;
70049;SDS011;57391;51.306;22.680;2023-06-10T10:59:54;18.50;;;10.40;;
70049;SDS011;57391;51.306;22.680;2023-06-10T11:02:42;9.30;;;5.50;;
70049;SDS011;57391;51.306;22.680;2023-06-10T11:05:15;7.00;;;4.70;;
70049;SDS011;57391;51.306;22.680;2023-06-10T11:07:55;6.20;;;4.20;;
70049;SDS011;57391;51.306;22.680;2023-06-10T11:10:36;7.20;;;4.90;;
70049;SDS011;57391;51.306;22.680;2023-06-10T11:13:14;10.70;;;6.10;;
70049;SDS011;57391;51.306;22.680;2023-06-10T11:15:47;9.20;;;5.20;;
70049;SDS011;57391;51.306;22.680;2023-06-10T11:20:54;9.00;;;6.10;;
70049;SDS011;57391;51.306;22.680;2023-06-10T11:31:32;9.90;;;6.60;;
70049;SDS011;57391;51.306;22.680;2023-06-10T11:34:02;12.00;;;8.20;;
70049;SDS011;57391;51.306;22.680;2023-06-10T11:36:34;9.00;;;7.40;;
70049;SDS011;57391;51.306;22.680;2023-06-10T11:39:05;23.40;;;21.00;;
70049;SDS011;57391;51.306;22.680;2023-06-10T11:41:34;15.70;;;14.10;;
70049;SDS011;57391;51.306;22.680;2023-06-10T11:44:08;18.60;;;17.00;;
70049;SDS011;57391;51.306;22.680;2023-06-10T12:51:42;8.50;;;6.90;;
70049;SDS011;57391;51.306;22.680;2023-06-10T12:54:08;8.40;;;6.10;;
70049;SDS011;57391;51.306;22.680;2023-06-10T12:56:35;9.10;;;6.20;;
70049;SDS011;57391;51.306;22.680;2023-06-10T12:59:02;6.90;;;5.10;;
70049;SDS011;57391;51.306;22.680;2023-06-10T13:01:29;6.90;;;4.80;;
70049;SDS011;57391;51.306;22.680;2023-06-10T13:03:57;7.30;;;5.10;;
70049;SDS011;57391;51.306;22.680;2023-06-10T13:06:25;7.20;;;5.20;;
70049;SDS011;57391;51.306;22.680;2023-06-10T13:08:51;8.60;;;5.00;;
70049;SDS011;57391;51.306;22.680;2023-06-10T13:11:17;7.30;;;4.60;;
70049;SDS011;57391;51.306;22.680;2023-06-10T13:13:44;8.00;;;5.00;;
70049;SDS011;57391;51.306;22.680;2023-06-10T13:16:12;7.10;;;4.90;;
70049;SDS011;57391;51.306;22.680;2023-06-10T13:18:38;9.20;;;5.00;;
70049;SDS011;57391;51.306;22.680;2023-06-10T13:21:05;7.10;;;5.00;;
70049;SDS011;57391;51.306;22.680;2023-06-10T13:23:32;9.20;;;5.00;;
70049;SDS011;57391;51.306;22.680;2023-06-10T13:25:58;5.60;;;4.20;;
70049;SDS011;57391;51.306;22.680;2023-06-10T13:28:25;6.30;;;4.60;;
70049;SDS011;57391;51.306;22.680;2023-06-10T13:30:51;6.50;;;4.80;;
70049;SDS011;57391;51.306;22.680;2023-06-10T13:33:17;6.40;;;4.50;;
70049;SDS011;57391;51.306;22.680;2023-06-10T13:35:44;7.20;;;4.90;;
70049;SDS011;57391;51.306;22.680;2023-06-10T13:38:10;6.80;;;4.60;;
70049;SDS011;57391;51.306;22.680;2023-06-10T13:40:36;6.50;;;4.70;;
70049;SDS011;57391;51.306;22.680;2023-06-10T13:43:02;7.20;;;4.60;;
70049;SDS011;57391;51.306;22.680;2023-06-10T13:45:29;7.20;;;5.10;;
70049;SDS011;57391;51.306;22.680;2023-06-10T13:47:55;7.50;;;5.60;;
70049;SDS011;57391;51.306;22.680;2023-06-10T13:50:21;7.80;;;5.50;;
70049;SDS011;57391;51.306;22.680;2023-06-10T13:52:48;7.20;;;5.30;;
70049;SDS011;57391;51.306;22.680;2023-06-10T13:55:14;7.20;;;5.50;;
70049;SDS011;57391;51.306;22.680;2023-06-10T13:57:41;7.90;;;5.60;;
70049;SDS011;57391;51.306;22.680;2023-06-10T14:00:08;7.60;;;5.60;;
70049;SDS011;57391;51.306;22.680;2023-06-10T14:02:37;6.40;;;5.00;;
70049;SDS011;57391;51.306;22.680;2023-06-10T14:05:03;8.40;;;5.70;;
70049;SDS011;57391;51.306;22.680;2023-06-10T14:07:31;7.00;;;4.80;;
70049;SDS011;57391;51.306;22.680;2023-06-10T14:09:57;7.60;;;5.40;;
70049;SDS011;57391;51.306;22.680;2023-06-10T14:12:24;7.80;;;4.90;;
70049;SDS011;57391;51.306;22.680;2023-06-10T14:14:51;7.20;;;5.70;;
70049;SDS011;57391;51.306;22.680;2023-06-10T14:17:17;7.30;;;5.90;;
70049;SDS011;57391;51.306;22.680;2023-06-10T14:19:43;7.40;;;5.40;;
70049;SDS011;57391;51.306;22.680;2023-06-10T14:22:10;7.60;;;5.80;;
70049;SDS011;57391;51.306;22.680;2023-06-10T14:24:36;9.50;;;6.80;;
70049;SDS011;57391;51.306;22.680;2023-06-10T14:27:03;7.70;;;6.00;;
70049;SDS011;57391;51.306;22.680;2023-06-10T14:29:29;8.80;;;6.40;;
70049;SDS011;57391;51.306;22.680;2023-06-10T14:31:57;7.80;;;5.90;;
70049;SDS011;57391;51.306;22.680;2023-06-10T14:34:23;10.10;;;6.00;;
70049;SDS011;57391;51.306;22.680;2023-06-10T14:36:55;7.80;;;6.00;;
70049;SDS011;57391;51.306;22.680;2023-06-10T14:39:21;8.70;;;6.70;;
70049;SDS011;57391;51.306;22.680;2023-06-10T14:41:47;9.20;;;6.50;;
70049;SDS011;57391;51.306;22.680;2023-06-10T14:44:14;9.00;;;6.70;;
70049;SDS011;57391;51.306;22.680;2023-06-10T14:46:40;10.00;;;6.50;;
70049;SDS011;57391;51.306;22.680;2023-06-10T14:49:06;8.90;;;6.50;;
70049;SDS011;57391;51.306;22.680;2023-06-10T14:51:32;8.30;;;6.30;;
70049;SDS011;57391;51.306;22.680;2023-06-10T14:53:59;8.40;;;6.70;;
70049;SDS011;57391;51.306;22.680;2023-06-10T14:56:25;10.80;;;7.20;;
70049;SDS011;57391;51.306;22.680;2023-06-10T14:58:51;9.20;;;7.00;;
70049;SDS011;57391;51.306;22.680;2023-06-10T15:01:18;8.60;;;6.70;;
70049;SDS011;57391;51.306;22.680;2023-06-10T15:03:44;9.80;;;6.30;;
70049;SDS011;57391;51.306;22.680;2023-06-10T15:06:10;7.80;;;6.20;;
70049;SDS011;57391;51.306;22.680;2023-06-10T15:08:36;8.20;;;6.60;;
70049;SDS011;57391;51.306;22.680;2023-06-10T15:11:03;8.20;;;5.50;;
70049;SDS011;57391;51.306;22.680;2023-06-10T15:13:29;8.60;;;5.00;;
70049;SDS011;57391;51.306;22.680;2023-06-10T15:15:55;9.40;;;5.20;;
70049;SDS011;57391;51.306;22.680;2023-06-10T15:18:21;7.10;;;4.90;;
70049;SDS011;57391;51.306;22.680;2023-06-10T15:20:48;5.60;;;4.20;;
70049;SDS011;57391;51.306;22.680;2023-06-10T15:23:14;8.10;;;5.70;;
70049;SDS011;57391;51.306;22.680;2023-06-10T15:25:40;6.90;;;5.20;;
70049;SDS011;57391;51.306;22.680;2023-06-10T15:28:08;5.90;;;4.80;;
70049;SDS011;57391;51.306;22.680;2023-06-10T15:30:34;7.20;;;4.80;;
70049;SDS011;57391;51.306;22.680;2023-06-10T15:33:00;6.90;;;4.70;;
70049;SDS011;57391;51.306;22.680;2023-06-10T15:35:26;6.40;;;4.80;;
70049;SDS011;57391;51.306;22.680;2023-06-10T15:37:53;7.70;;;4.90;;
70049;SDS011;57391;51.306;22.680;2023-06-10T15:40:20;6.90;;;5.00;;
70049;SDS011;57391;51.306;22.680;2023-06-10T15:42:46;6.20;;;4.90;;
70049;SDS011;57391;51.306;22.680;2023-06-10T15:45:12;7.90;;;4.90;;
70049;SDS011;57391;51.306;22.680;2023-06-10T15:47:39;8.20;;;4.40;;
70049;SDS011;57391;51.306;22.680;2023-06-10T15:50:08;7.60;;;5.20;;
70049;SDS011;57391;51.306;22.680;2023-06-10T15:52:35;8.10;;;5.60;;
70049;SDS011;57391;51.306;22.680;2023-06-10T15:55:02;8.20;;;5.70;;
70049;SDS011;57391;51.306;22.680;2023-06-10T15:57:28;6.70;;;5.00;;
70049;SDS011;57391;51.306;22.680;2023-06-10T15:59:55;7.00;;;5.30;;
70049;SDS011;57391;51.306;22.680;2023-06-10T16:02:21;9.30;;;5.90;;
70049;SDS011;57391;51.306;22.680;2023-06-10T16:04:48;7.00;;;5.70;;
70049;SDS011;57391;51.306;22.680;2023-06-10T16:07:14;8.20;;;6.00;;